sensor_id;sensor_type;location;lat;lon;timestamp;P1;durP1;ratioP1;P2;durP2;ratioP2
65835;SDS011;52595;51.608;7.216;2024-02-26T00:01:25;6.60;;;3.20;;
65835;SDS011;52595;51.608;7.216;2024-02-26T00:03:50;5.40;;;3.35;;
65835;SDS011;52595;51.608;7.216;2024-02-26T00:06:17;5.55;;;3.20;;
65835;SDS011;52595;51.608;7.216;2024-02-26T00:08:43;6.15;;;3.30;;
65835;SDS011;52595;51.608;7.216;2024-02-26T00:11:09;5.15;;;2.92;;
65835;SDS011;52595;51.608;7.216;2024-02-26T00:13:34;5.32;;;3.10;;
65835;SDS011;52595;51.608;7.216;2024-02-26T00:16:00;5.05;;;3.00;;
65835;SDS011;52595;51.608;7.216;2024-02-26T00:18:26;6.38;;;3.08;;
65835;SDS011;52595;51.608;7.216;2024-02-26T00:20:51;6.00;;;3.40;;
65835;SDS011;52595;51.608;7.216;2024-02-26T00:23:16;5.88;;;3.40;;
65835;SDS011;52595;51.608;7.216;2024-02-26T00:25:42;5.13;;;3.20;;
65835;SDS011;52595;51.608;7.216;2024-02-26T00:28:08;5.28;;;3.13;;
65835;SDS011;52595;51.608;7.216;2024-02-26T00:30:34;5.38;;;3.05;;
65835;SDS011;52595;51.608;7.216;2024-02-26T00:32:59;4.35;;;2.88;;
65835;SDS011;52595;51.608;7.216;2024-02-26T00:35:25;5.00;;;2.90;;
65835;SDS011;52595;51.608;7.216;2024-02-26T00:37:50;4.45;;;2.70;;
65835;SDS011;52595;51.608;7.216;2024-02-26T00:40:15;4.10;;;2.60;;
65835;SDS011;52595;51.608;7.216;2024-02-26T00:42:41;4.25;;;2.80;;
65835;SDS011;52595;51.608;7.216;2024-02-26T00:45:10;5.85;;;2.75;;
65835;SDS011;52595;51.608;7.216;2024-02-26T00:47:37;6.03;;;3.03;;
65835;SDS011;52595;51.608;7.216;2024-02-26T00:50:02;4.22;;;2.45;;
65835;SDS011;52595;51.608;7.216;2024-02-26T00:52:28;4.18;;;2.53;;
65835;SDS011;52595;51.608;7.216;2024-02-26T00:54:53;4.72;;;2.90;;
65835;SDS011;52595;51.608;7.216;2024-02-26T00:57:19;4.35;;;2.60;;
65835;SDS011;52595;51.608;7.216;2024-02-26T00:59:44;3.75;;;2.42;;
65835;SDS011;52595;51.608;7.216;2024-02-26T01:02:09;6.40;;;2.70;;
65835;SDS011;52595;51.608;7.216;2024-02-26T01:04:35;3.88;;;2.58;;
65835;SDS011;52595;51.608;7.216;2024-02-26T01:07:00;5.45;;;3.28;;
65835;SDS011;52595;51.608;7.216;2024-02-26T01:09:25;5.35;;;2.75;;
65835;SDS011;52595;51.608;7.216;2024-02-26T01:11:51;3.80;;;2.13;;
65835;SDS011;52595;51.608;7.216;2024-02-26T01:14:16;5.00;;;2.70;;
65835;SDS011;52595;51.608;7.216;2024-02-26T01:16:41;3.78;;;2.58;;
65835;SDS011;52595;51.608;7.216;2024-02-26T01:19:07;4.50;;;2.60;;
65835;SDS011;52595;51.608;7.216;2024-02-26T01:21:32;3.47;;;2.42;;
65835;SDS011;52595;51.608;7.216;2024-02-26T01:23:58;4.15;;;2.67;;
65835;SDS011;52595;51.608;7.216;2024-02-26T01:26:23;3.95;;;2.70;;
65835;SDS011;52595;51.608;7.216;2024-02-26T01:28:48;4.55;;;2.53;;
65835;SDS011;52595;51.608;7.216;2024-02-26T01:31:14;5.00;;;2.50;;
65835;SDS011;52595;51.608;7.216;2024-02-26T01:33:39;3.40;;;2.20;;
65835;SDS011;52595;51.608;7.216;2024-02-26T01:36:05;5.03;;;2.50;;
65835;SDS011;52595;51.608;7.216;2024-02-26T01:38:31;5.15;;;2.60;;
65835;SDS011;52595;51.608;7.216;2024-02-26T01:40:56;5.57;;;2.70;;
65835;SDS011;52595;51.608;7.216;2024-02-26T01:43:22;4.43;;;2.67;;
65835;SDS011;52595;51.608;7.216;2024-02-26T01:45:47;4.25;;;2.60;;
65835;SDS011;52595;51.608;7.216;2024-02-26T01:48:13;4.50;;;2.58;;
65835;SDS011;52595;51.608;7.216;2024-02-26T01:50:38;4.60;;;2.60;;
65835;SDS011;52595;51.608;7.216;2024-02-26T01:53:05;3.85;;;2.38;;
65835;SDS011;52595;51.608;7.216;2024-02-26T01:55:32;5.53;;;2.78;;
65835;SDS011;52595;51.608;7.216;2024-02-26T01:57:58;3.53;;;2.60;;
65835;SDS011;52595;51.608;7.216;2024-02-26T02:00:24;5.43;;;2.80;;
65835;SDS011;52595;51.608;7.216;2024-02-26T02:02:50;4.30;;;2.78;;
65835;SDS011;52595;51.608;7.216;2024-02-26T02:05:16;5.25;;;2.65;;
65835;SDS011;52595;51.608;7.216;2024-02-26T02:07:44;6.32;;;2.90;;
65835;SDS011;52595;51.608;7.216;2024-02-26T02:10:10;5.18;;;2.70;;
65835;SDS011;52595;51.608;7.216;2024-02-26T02:12:35;10.80;;;2.90;;
65835;SDS011;52595;51.608;7.216;2024-02-26T02:15:03;4.90;;;2.53;;
65835;SDS011;52595;51.608;7.216;2024-02-26T02:17:30;4.57;;;2.63;;
65835;SDS011;52595;51.608;7.216;2024-02-26T02:19:56;4.68;;;2.35;;
65835;SDS011;52595;51.608;7.216;2024-02-26T02:22:21;4.00;;;2.40;;
65835;SDS011;52595;51.608;7.216;2024-02-26T02:24:47;3.38;;;2.38;;
65835;SDS011;52595;51.608;7.216;2024-02-26T02:27:14;3.90;;;2.30;;
65835;SDS011;52595;51.608;7.216;2024-02-26T02:29:39;4.45;;;2.38;;
65835;SDS011;52595;51.608;7.216;2024-02-26T02:32:05;4.45;;;2.40;;
65835;SDS011;52595;51.608;7.216;2024-02-26T02:34:31;3.60;;;2.33;;
65835;SDS011;52595;51.608;7.216;2024-02-26T02:36:57;3.78;;;2.35;;
65835;SDS011;52595;51.608;7.216;2024-02-26T02:39:22;4.53;;;2.65;;
65835;SDS011;52595;51.608;7.216;2024-02-26T02:41:48;4.55;;;2.40;;
65835;SDS011;52595;51.608;7.216;2024-02-26T02:44:13;4.65;;;2.33;;
65835;SDS011;52595;51.608;7.216;2024-02-26T02:46:39;3.47;;;2.35;;
65835;SDS011;52595;51.608;7.216;2024-02-26T02:49:07;4.65;;;2.40;;
65835;SDS011;52595;51.608;7.216;2024-02-26T02:51:34;3.83;;;2.40;;
65835;SDS011;52595;51.608;7.216;2024-02-26T02:53:59;4.05;;;2.65;;
65835;SDS011;52595;51.608;7.216;2024-02-26T02:56:25;4.03;;;2.65;;
65835;SDS011;52595;51.608;7.216;2024-02-26T02:58:50;5.50;;;2.63;;
65835;SDS011;52595;51.608;7.216;2024-02-26T03:01:15;4.03;;;2.80;;
65835;SDS011;52595;51.608;7.216;2024-02-26T03:03:41;4.45;;;2.78;;
65835;SDS011;52595;51.608;7.216;2024-02-26T03:06:06;4.30;;;2.75;;
65835;SDS011;52595;51.608;7.216;2024-02-26T03:08:31;7.22;;;3.00;;
65835;SDS011;52595;51.608;7.216;2024-02-26T03:10:58;5.05;;;3.05;;
65835;SDS011;52595;51.608;7.216;2024-02-26T03:13:24;4.78;;;2.88;;
65835;SDS011;52595;51.608;7.216;2024-02-26T03:15:49;5.22;;;3.00;;
65835;SDS011;52595;51.608;7.216;2024-02-26T03:18:14;4.82;;;3.05;;
65835;SDS011;52595;51.608;7.216;2024-02-26T03:20:40;4.40;;;3.00;;
65835;SDS011;52595;51.608;7.216;2024-02-26T03:23:05;4.72;;;2.80;;
65835;SDS011;52595;51.608;7.216;2024-02-26T03:25:31;4.47;;;3.03;;
65835;SDS011;52595;51.608;7.216;2024-02-26T03:27:56;4.90;;;3.22;;
65835;SDS011;52595;51.608;7.216;2024-02-26T03:30:21;4.40;;;2.90;;
65835;SDS011;52595;51.608;7.216;2024-02-26T03:32:47;5.30;;;3.00;;
65835;SDS011;52595;51.608;7.216;2024-02-26T03:35:12;4.93;;;2.80;;
65835;SDS011;52595;51.608;7.216;2024-02-26T03:37:38;5.00;;;2.90;;
65835;SDS011;52595;51.608;7.216;2024-02-26T03:40:03;4.13;;;2.72;;
65835;SDS011;52595;51.608;7.216;2024-02-26T03:42:29;4.50;;;2.80;;
65835;SDS011;52595;51.608;7.216;2024-02-26T03:44:55;4.18;;;2.72;;
65835;SDS011;52595;51.608;7.216;2024-02-26T03:47:20;4.93;;;3.13;;
65835;SDS011;52595;51.608;7.216;2024-02-26T03:49:45;5.07;;;3.17;;
65835;SDS011;52595;51.608;7.216;2024-02-26T03:52:11;4.55;;;3.10;;
65835;SDS011;52595;51.608;7.216;2024-02-26T03:54:36;4.85;;;2.90;;
65835;SDS011;52595;51.608;7.216;2024-02-26T03:57:02;4.68;;;2.70;;
65835;SDS011;52595;51.608;7.216;2024-02-26T03:59:27;5.53;;;2.90;;
65835;SDS011;52595;51.608;7.216;2024-02-26T04:01:52;4.43;;;2.70;;
65835;SDS011;52595;51.608;7.216;2024-02-26T04:04:18;4.75;;;2.75;;
65835;SDS011;52595;51.608;7.216;2024-02-26T04:06:46;4.00;;;2.60;;
65835;SDS011;52595;51.608;7.216;2024-02-26T04:09:15;4.60;;;2.85;;
65835;SDS011;52595;51.608;7.216;2024-02-26T04:11:41;4.35;;;2.80;;
65835;SDS011;52595;51.608;7.216;2024-02-26T04:14:08;3.35;;;2.42;;
65835;SDS011;52595;51.608;7.216;2024-02-26T04:16:34;4.50;;;2.88;;
65835;SDS011;52595;51.608;7.216;2024-02-26T04:19:00;4.97;;;2.92;;
65835;SDS011;52595;51.608;7.216;2024-02-26T04:21:26;5.50;;;2.67;;
65835;SDS011;52595;51.608;7.216;2024-02-26T04:23:51;4.35;;;2.80;;
65835;SDS011;52595;51.608;7.216;2024-02-26T04:26:20;5.15;;;2.60;;
65835;SDS011;52595;51.608;7.216;2024-02-26T04:28:46;4.40;;;2.70;;
65835;SDS011;52595;51.608;7.216;2024-02-26T04:31:11;3.75;;;2.60;;
65835;SDS011;52595;51.608;7.216;2024-02-26T04:33:36;3.88;;;2.65;;
65835;SDS011;52595;51.608;7.216;2024-02-26T04:36:02;5.03;;;3.00;;
65835;SDS011;52595;51.608;7.216;2024-02-26T04:38:28;4.35;;;2.80;;
65835;SDS011;52595;51.608;7.216;2024-02-26T04:40:53;4.97;;;3.30;;
65835;SDS011;52595;51.608;7.216;2024-02-26T04:43:19;4.15;;;2.88;;
65835;SDS011;52595;51.608;7.216;2024-02-26T04:45:44;5.43;;;3.25;;
65835;SDS011;52595;51.608;7.216;2024-02-26T04:48:10;5.72;;;3.65;;
65835;SDS011;52595;51.608;7.216;2024-02-26T04:50:35;7.07;;;3.70;;
65835;SDS011;52595;51.608;7.216;2024-02-26T04:53:00;6.28;;;3.92;;
65835;SDS011;52595;51.608;7.216;2024-02-26T04:55:26;6.03;;;3.90;;
65835;SDS011;52595;51.608;7.216;2024-02-26T04:57:51;6.88;;;3.88;;
65835;SDS011;52595;51.608;7.216;2024-02-26T05:00:17;6.07;;;3.75;;
65835;SDS011;52595;51.608;7.216;2024-02-26T05:02:42;6.05;;;4.03;;
65835;SDS011;52595;51.608;7.216;2024-02-26T05:05:08;5.88;;;3.90;;
65835;SDS011;52595;51.608;7.216;2024-02-26T05:07:41;5.60;;;3.75;;
65835;SDS011;52595;51.608;7.216;2024-02-26T05:10:10;6.45;;;3.90;;
65835;SDS011;52595;51.608;7.216;2024-02-26T05:12:36;5.80;;;3.90;;
65835;SDS011;52595;51.608;7.216;2024-02-26T05:15:01;5.63;;;3.40;;
65835;SDS011;52595;51.608;7.216;2024-02-26T05:17:27;7.85;;;3.90;;
65835;SDS011;52595;51.608;7.216;2024-02-26T05:19:53;5.80;;;3.85;;
65835;SDS011;52595;51.608;7.216;2024-02-26T05:22:18;6.95;;;4.20;;
65835;SDS011;52595;51.608;7.216;2024-02-26T05:24:44;5.72;;;3.80;;
65835;SDS011;52595;51.608;7.216;2024-02-26T05:27:09;6.95;;;3.65;;
65835;SDS011;52595;51.608;7.216;2024-02-26T05:29:35;5.32;;;3.30;;
65835;SDS011;52595;51.608;7.216;2024-02-26T05:32:01;5.70;;;3.70;;
65835;SDS011;52595;51.608;7.216;2024-02-26T05:34:26;5.97;;;3.78;;
65835;SDS011;52595;51.608;7.216;2024-02-26T05:36:51;6.03;;;3.78;;
65835;SDS011;52595;51.608;7.216;2024-02-26T05:39:17;7.80;;;4.05;;
65835;SDS011;52595;51.608;7.216;2024-02-26T05:41:42;6.88;;;3.85;;
65835;SDS011;52595;51.608;7.216;2024-02-26T05:44:08;6.22;;;4.00;;
65835;SDS011;52595;51.608;7.216;2024-02-26T05:46:35;7.32;;;3.75;;
65835;SDS011;52595;51.608;7.216;2024-02-26T05:49:00;7.68;;;4.25;;
65835;SDS011;52595;51.608;7.216;2024-02-26T05:51:26;7.15;;;3.95;;
65835;SDS011;52595;51.608;7.216;2024-02-26T05:53:51;6.75;;;4.28;;
65835;SDS011;52595;51.608;7.216;2024-02-26T05:56:19;6.85;;;3.97;;
65835;SDS011;52595;51.608;7.216;2024-02-26T05:58:45;6.32;;;3.78;;
65835;SDS011;52595;51.608;7.216;2024-02-26T06:01:11;8.20;;;4.28;;
65835;SDS011;52595;51.608;7.216;2024-02-26T06:03:36;7.80;;;4.22;;
65835;SDS011;52595;51.608;7.216;2024-02-26T06:06:01;6.60;;;4.32;;
65835;SDS011;52595;51.608;7.216;2024-02-26T06:08:27;6.85;;;4.07;;
65835;SDS011;52595;51.608;7.216;2024-02-26T06:10:52;6.75;;;3.90;;
65835;SDS011;52595;51.608;7.216;2024-02-26T06:13:17;6.03;;;4.05;;
65835;SDS011;52595;51.608;7.216;2024-02-26T06:15:43;7.07;;;4.35;;
65835;SDS011;52595;51.608;7.216;2024-02-26T06:18:08;7.88;;;4.75;;
65835;SDS011;52595;51.608;7.216;2024-02-26T06:20:34;7.47;;;4.35;;
65835;SDS011;52595;51.608;7.216;2024-02-26T06:22:59;8.20;;;4.35;;
65835;SDS011;52595;51.608;7.216;2024-02-26T06:25:24;7.18;;;4.47;;
65835;SDS011;52595;51.608;7.216;2024-02-26T06:27:50;8.25;;;4.57;;
65835;SDS011;52595;51.608;7.216;2024-02-26T06:30:16;7.38;;;4.35;;
65835;SDS011;52595;51.608;7.216;2024-02-26T06:32:41;8.80;;;4.43;;
65835;SDS011;52595;51.608;7.216;2024-02-26T06:35:07;10.60;;;5.07;;
65835;SDS011;52595;51.608;7.216;2024-02-26T06:37:35;7.30;;;4.25;;
65835;SDS011;52595;51.608;7.216;2024-02-26T06:40:01;6.47;;;3.90;;
65835;SDS011;52595;51.608;7.216;2024-02-26T06:42:29;6.35;;;3.88;;
65835;SDS011;52595;51.608;7.216;2024-02-26T06:44:55;6.63;;;4.35;;
65835;SDS011;52595;51.608;7.216;2024-02-26T06:47:20;7.70;;;4.30;;
65835;SDS011;52595;51.608;7.216;2024-02-26T06:49:46;6.95;;;4.28;;
65835;SDS011;52595;51.608;7.216;2024-02-26T06:52:11;9.07;;;4.35;;
65835;SDS011;52595;51.608;7.216;2024-02-26T06:54:37;6.30;;;4.32;;
65835;SDS011;52595;51.608;7.216;2024-02-26T06:57:03;8.10;;;4.68;;
65835;SDS011;52595;51.608;7.216;2024-02-26T06:59:28;6.80;;;4.45;;
65835;SDS011;52595;51.608;7.216;2024-02-26T07:01:53;7.75;;;4.38;;
65835;SDS011;52595;51.608;7.216;2024-02-26T07:04:19;6.90;;;4.18;;
65835;SDS011;52595;51.608;7.216;2024-02-26T07:06:45;7.90;;;4.70;;
65835;SDS011;52595;51.608;7.216;2024-02-26T07:09:11;7.18;;;4.00;;
65835;SDS011;52595;51.608;7.216;2024-02-26T07:11:37;6.60;;;4.20;;
65835;SDS011;52595;51.608;7.216;2024-02-26T07:14:02;6.05;;;3.88;;
65835;SDS011;52595;51.608;7.216;2024-02-26T07:16:28;7.20;;;3.83;;
65835;SDS011;52595;51.608;7.216;2024-02-26T07:18:53;5.30;;;3.70;;
65835;SDS011;52595;51.608;7.216;2024-02-26T07:21:19;7.43;;;4.20;;
65835;SDS011;52595;51.608;7.216;2024-02-26T07:23:44;5.97;;;3.90;;
65835;SDS011;52595;51.608;7.216;2024-02-26T07:26:10;5.68;;;3.83;;
65835;SDS011;52595;51.608;7.216;2024-02-26T07:28:37;5.70;;;3.90;;
65835;SDS011;52595;51.608;7.216;2024-02-26T07:31:02;7.05;;;4.10;;
65835;SDS011;52595;51.608;7.216;2024-02-26T07:33:28;6.63;;;4.30;;
65835;SDS011;52595;51.608;7.216;2024-02-26T07:35:53;6.82;;;4.18;;
65835;SDS011;52595;51.608;7.216;2024-02-26T07:38:19;6.50;;;4.13;;
65835;SDS011;52595;51.608;7.216;2024-02-26T07:40:44;6.20;;;3.92;;
65835;SDS011;52595;51.608;7.216;2024-02-26T07:43:10;6.15;;;3.78;;
65835;SDS011;52595;51.608;7.216;2024-02-26T07:45:35;5.50;;;3.55;;
65835;SDS011;52595;51.608;7.216;2024-02-26T07:48:01;5.78;;;3.67;;
65835;SDS011;52595;51.608;7.216;2024-02-26T07:50:27;8.13;;;4.22;;
65835;SDS011;52595;51.608;7.216;2024-02-26T07:52:52;7.93;;;4.00;;
65835;SDS011;52595;51.608;7.216;2024-02-26T07:55:18;6.05;;;3.90;;
65835;SDS011;52595;51.608;7.216;2024-02-26T07:57:44;5.30;;;3.60;;
65835;SDS011;52595;51.608;7.216;2024-02-26T08:00:09;5.50;;;3.53;;
65835;SDS011;52595;51.608;7.216;2024-02-26T08:02:36;6.10;;;3.55;;
65835;SDS011;52595;51.608;7.216;2024-02-26T08:05:01;6.45;;;3.70;;
65835;SDS011;52595;51.608;7.216;2024-02-26T08:07:27;5.53;;;3.63;;
65835;SDS011;52595;51.608;7.216;2024-02-26T08:09:53;6.05;;;3.60;;
65835;SDS011;52595;51.608;7.216;2024-02-26T08:12:19;6.80;;;3.58;;
65835;SDS011;52595;51.608;7.216;2024-02-26T08:14:44;5.07;;;3.47;;
65835;SDS011;52595;51.608;7.216;2024-02-26T08:17:09;5.38;;;3.40;;
65835;SDS011;52595;51.608;7.216;2024-02-26T08:19:35;5.35;;;3.20;;
65835;SDS011;52595;51.608;7.216;2024-02-26T08:22:01;8.93;;;3.65;;
65835;SDS011;52595;51.608;7.216;2024-02-26T08:24:26;5.55;;;3.38;;
65835;SDS011;52595;51.608;7.216;2024-02-26T08:26:52;5.18;;;3.17;;
65835;SDS011;52595;51.608;7.216;2024-02-26T08:29:17;5.50;;;3.30;;
65835;SDS011;52595;51.608;7.216;2024-02-26T08:31:42;4.95;;;3.10;;
65835;SDS011;52595;51.608;7.216;2024-02-26T08:34:08;6.00;;;3.30;;
65835;SDS011;52595;51.608;7.216;2024-02-26T08:36:34;5.35;;;3.15;;
65835;SDS011;52595;51.608;7.216;2024-02-26T08:39:00;6.65;;;3.17;;
65835;SDS011;52595;51.608;7.216;2024-02-26T08:41:25;5.45;;;3.28;;
65835;SDS011;52595;51.608;7.216;2024-02-26T08:43:51;4.57;;;3.03;;
65835;SDS011;52595;51.608;7.216;2024-02-26T08:46:16;6.35;;;3.20;;
65835;SDS011;52595;51.608;7.216;2024-02-26T08:48:42;6.00;;;3.17;;
65835;SDS011;52595;51.608;7.216;2024-02-26T08:51:08;5.10;;;3.13;;
65835;SDS011;52595;51.608;7.216;2024-02-26T08:53:35;6.38;;;3.20;;
65835;SDS011;52595;51.608;7.216;2024-02-26T08:56:00;4.45;;;2.97;;
65835;SDS011;52595;51.608;7.216;2024-02-26T08:58:27;6.75;;;3.08;;
65835;SDS011;52595;51.608;7.216;2024-02-26T09:00:53;5.43;;;3.40;;
65835;SDS011;52595;51.608;7.216;2024-02-26T09:03:18;5.80;;;3.50;;
65835;SDS011;52595;51.608;7.216;2024-02-26T09:05:44;5.45;;;3.22;;
65835;SDS011;52595;51.608;7.216;2024-02-26T09:08:09;6.45;;;3.40;;
65835;SDS011;52595;51.608;7.216;2024-02-26T09:10:35;5.55;;;3.63;;
65835;SDS011;52595;51.608;7.216;2024-02-26T09:13:00;6.13;;;3.40;;
65835;SDS011;52595;51.608;7.216;2024-02-26T09:15:25;4.57;;;3.30;;
65835;SDS011;52595;51.608;7.216;2024-02-26T09:17:51;7.30;;;3.40;;
65835;SDS011;52595;51.608;7.216;2024-02-26T09:20:17;5.72;;;3.60;;
65835;SDS011;52595;51.608;7.216;2024-02-26T09:22:46;6.22;;;3.40;;
65835;SDS011;52595;51.608;7.216;2024-02-26T09:25:12;6.03;;;3.63;;
65835;SDS011;52595;51.608;7.216;2024-02-26T09:27:38;5.55;;;3.22;;
65835;SDS011;52595;51.608;7.216;2024-02-26T09:30:03;5.47;;;3.50;;
65835;SDS011;52595;51.608;7.216;2024-02-26T09:32:29;4.60;;;3.15;;
65835;SDS011;52595;51.608;7.216;2024-02-26T09:34:55;7.22;;;3.22;;
65835;SDS011;52595;51.608;7.216;2024-02-26T09:37:20;5.07;;;3.42;;
65835;SDS011;52595;51.608;7.216;2024-02-26T09:39:46;5.45;;;3.65;;
65835;SDS011;52595;51.608;7.216;2024-02-26T09:42:12;5.15;;;3.50;;
65835;SDS011;52595;51.608;7.216;2024-02-26T09:44:39;5.55;;;3.67;;
65835;SDS011;52595;51.608;7.216;2024-02-26T09:47:07;5.45;;;3.47;;
65835;SDS011;52595;51.608;7.216;2024-02-26T09:49:40;5.68;;;3.58;;
65835;SDS011;52595;51.608;7.216;2024-02-26T09:52:07;5.40;;;3.78;;
65835;SDS011;52595;51.608;7.216;2024-02-26T09:54:34;6.93;;;3.80;;
65835;SDS011;52595;51.608;7.216;2024-02-26T09:57:00;5.07;;;3.45;;
65835;SDS011;52595;51.608;7.216;2024-02-26T09:59:29;5.18;;;3.47;;
65835;SDS011;52595;51.608;7.216;2024-02-26T10:01:57;6.30;;;3.70;;
65835;SDS011;52595;51.608;7.216;2024-02-26T10:04:25;5.68;;;3.67;;
65835;SDS011;52595;51.608;7.216;2024-02-26T10:06:51;5.97;;;3.63;;
65835;SDS011;52595;51.608;7.216;2024-02-26T10:09:17;5.47;;;3.80;;
65835;SDS011;52595;51.608;7.216;2024-02-26T10:11:43;8.05;;;4.07;;
65835;SDS011;52595;51.608;7.216;2024-02-26T10:14:09;6.65;;;3.50;;
65835;SDS011;52595;51.608;7.216;2024-02-26T10:16:34;6.80;;;3.63;;
65835;SDS011;52595;51.608;7.216;2024-02-26T10:19:00;5.85;;;3.30;;
65835;SDS011;52595;51.608;7.216;2024-02-26T10:21:26;5.47;;;3.60;;
65835;SDS011;52595;51.608;7.216;2024-02-26T10:23:51;5.10;;;3.45;;
65835;SDS011;52595;51.608;7.216;2024-02-26T10:26:17;7.55;;;3.30;;
65835;SDS011;52595;51.608;7.216;2024-02-26T10:28:43;5.70;;;3.60;;
65835;SDS011;52595;51.608;7.216;2024-02-26T10:31:09;6.70;;;3.63;;
65835;SDS011;52595;51.608;7.216;2024-02-26T10:33:35;6.05;;;3.80;;
65835;SDS011;52595;51.608;7.216;2024-02-26T10:36:05;7.57;;;3.90;;
65835;SDS011;52595;51.608;7.216;2024-02-26T10:38:34;5.40;;;3.80;;
65835;SDS011;52595;51.608;7.216;2024-02-26T10:41:01;6.38;;;3.60;;
65835;SDS011;52595;51.608;7.216;2024-02-26T10:43:38;6.93;;;3.90;;
65835;SDS011;52595;51.608;7.216;2024-02-26T10:46:03;7.25;;;3.60;;
65835;SDS011;52595;51.608;7.216;2024-02-26T10:48:30;5.55;;;3.45;;
65835;SDS011;52595;51.608;7.216;2024-02-26T10:50:55;6.57;;;4.10;;
65835;SDS011;52595;51.608;7.216;2024-02-26T10:53:23;5.97;;;3.90;;
65835;SDS011;52595;51.608;7.216;2024-02-26T10:56:01;6.65;;;4.18;;
65835;SDS011;52595;51.608;7.216;2024-02-26T10:58:28;7.43;;;4.10;;
65835;SDS011;52595;51.608;7.216;2024-02-26T11:00:54;7.82;;;4.40;;
65835;SDS011;52595;51.608;7.216;2024-02-26T11:03:21;8.13;;;4.40;;
65835;SDS011;52595;51.608;7.216;2024-02-26T11:05:48;7.88;;;4.88;;
65835;SDS011;52595;51.608;7.216;2024-02-26T11:08:15;7.38;;;4.70;;
65835;SDS011;52595;51.608;7.216;2024-02-26T11:10:43;8.70;;;5.20;;
65835;SDS011;52595;51.608;7.216;2024-02-26T11:13:09;9.88;;;5.45;;
65835;SDS011;52595;51.608;7.216;2024-02-26T11:15:37;9.60;;;5.13;;
65835;SDS011;52595;51.608;7.216;2024-02-26T11:18:04;9.10;;;5.55;;
65835;SDS011;52595;51.608;7.216;2024-02-26T11:20:32;9.20;;;5.07;;
65835;SDS011;52595;51.608;7.216;2024-02-26T11:22:58;10.63;;;5.75;;
65835;SDS011;52595;51.608;7.216;2024-02-26T11:25:23;10.48;;;5.82;;
65835;SDS011;52595;51.608;7.216;2024-02-26T11:27:51;9.02;;;5.68;;
65835;SDS011;52595;51.608;7.216;2024-02-26T11:30:22;10.10;;;5.43;;
65835;SDS011;52595;51.608;7.216;2024-02-26T11:32:49;9.27;;;5.50;;
65835;SDS011;52595;51.608;7.216;2024-02-26T11:35:17;9.75;;;5.53;;
65835;SDS011;52595;51.608;7.216;2024-02-26T11:37:56;9.13;;;5.75;;
65835;SDS011;52595;51.608;7.216;2024-02-26T11:40:26;9.75;;;5.25;;
65835;SDS011;52595;51.608;7.216;2024-02-26T11:42:51;9.23;;;5.78;;
65835;SDS011;52595;51.608;7.216;2024-02-26T11:48:03;9.75;;;5.55;;
65835;SDS011;52595;51.608;7.216;2024-02-26T11:50:35;9.95;;;5.80;;
65835;SDS011;52595;51.608;7.216;2024-02-26T11:55:45;12.38;;;6.65;;
65835;SDS011;52595;51.608;7.216;2024-02-26T11:58:11;9.85;;;5.60;;
65835;SDS011;52595;51.608;7.216;2024-02-26T12:00:36;8.85;;;5.80;;
65835;SDS011;52595;51.608;7.216;2024-02-26T12:03:05;11.07;;;5.53;;
65835;SDS011;52595;51.608;7.216;2024-02-26T12:05:33;9.00;;;5.80;;
65835;SDS011;52595;51.608;7.216;2024-02-26T12:08:04;9.48;;;5.60;;
65835;SDS011;52595;51.608;7.216;2024-02-26T12:10:38;10.90;;;5.72;;
65835;SDS011;52595;51.608;7.216;2024-02-26T12:13:14;9.18;;;5.47;;
65835;SDS011;52595;51.608;7.216;2024-02-26T12:15:44;10.32;;;5.40;;
65835;SDS011;52595;51.608;7.216;2024-02-26T12:18:10;7.90;;;5.22;;
65835;SDS011;52595;51.608;7.216;2024-02-26T12:23:06;9.20;;;5.30;;
65835;SDS011;52595;51.608;7.216;2024-02-26T12:25:32;10.40;;;5.05;;
65835;SDS011;52595;51.608;7.216;2024-02-26T12:27:58;8.32;;;5.32;;
65835;SDS011;52595;51.608;7.216;2024-02-26T12:30:24;8.38;;;4.95;;
65835;SDS011;52595;51.608;7.216;2024-02-26T12:32:52;8.52;;;5.28;;
65835;SDS011;52595;51.608;7.216;2024-02-26T12:35:22;7.55;;;4.90;;
65835;SDS011;52595;51.608;7.216;2024-02-26T12:37:49;9.00;;;5.13;;
65835;SDS011;52595;51.608;7.216;2024-02-26T12:40:16;7.70;;;4.90;;
65835;SDS011;52595;51.608;7.216;2024-02-26T12:42:42;10.25;;;5.07;;
65835;SDS011;52595;51.608;7.216;2024-02-26T12:45:09;8.30;;;5.00;;
65835;SDS011;52595;51.608;7.216;2024-02-26T12:47:39;9.90;;;4.88;;
65835;SDS011;52595;51.608;7.216;2024-02-26T12:50:05;9.20;;;5.15;;
65835;SDS011;52595;51.608;7.216;2024-02-26T12:52:34;10.68;;;5.05;;
65835;SDS011;52595;51.608;7.216;2024-02-26T12:55:02;7.90;;;5.10;;
65835;SDS011;52595;51.608;7.216;2024-02-26T12:57:31;8.13;;;4.93;;
65835;SDS011;52595;51.608;7.216;2024-02-26T12:59:58;9.02;;;5.32;;
65835;SDS011;52595;51.608;7.216;2024-02-26T13:02:25;7.95;;;5.20;;
65835;SDS011;52595;51.608;7.216;2024-02-26T13:04:51;9.75;;;4.38;;
65835;SDS011;52595;51.608;7.216;2024-02-26T13:07:18;6.55;;;4.40;;
65835;SDS011;52595;51.608;7.216;2024-02-26T13:09:44;6.32;;;3.95;;
65835;SDS011;52595;51.608;7.216;2024-02-26T13:12:09;6.55;;;4.47;;
65835;SDS011;52595;51.608;7.216;2024-02-26T13:14:35;8.23;;;4.15;;
65835;SDS011;52595;51.608;7.216;2024-02-26T13:17:01;7.13;;;4.47;;
65835;SDS011;52595;51.608;7.216;2024-02-26T13:19:27;6.72;;;3.88;;
65835;SDS011;52595;51.608;7.216;2024-02-26T13:21:53;7.93;;;4.30;;
65835;SDS011;52595;51.608;7.216;2024-02-26T13:24:22;8.15;;;3.90;;
65835;SDS011;52595;51.608;7.216;2024-02-26T13:26:53;6.85;;;4.00;;
65835;SDS011;52595;51.608;7.216;2024-02-26T13:29:22;7.95;;;4.45;;
65835;SDS011;52595;51.608;7.216;2024-02-26T13:31:47;7.82;;;4.30;;
65835;SDS011;52595;51.608;7.216;2024-02-26T13:34:25;9.80;;;3.97;;
65835;SDS011;52595;51.608;7.216;2024-02-26T13:36:52;6.30;;;3.97;;
65835;SDS011;52595;51.608;7.216;2024-02-26T13:39:25;8.60;;;4.68;;
65835;SDS011;52595;51.608;7.216;2024-02-26T13:41:52;6.50;;;4.15;;
65835;SDS011;52595;51.608;7.216;2024-02-26T13:44:21;8.70;;;4.10;;
65835;SDS011;52595;51.608;7.216;2024-02-26T13:46:47;6.85;;;4.00;;
65835;SDS011;52595;51.608;7.216;2024-02-26T13:49:14;6.45;;;3.83;;
65835;SDS011;52595;51.608;7.216;2024-02-26T13:51:40;8.00;;;4.15;;
65835;SDS011;52595;51.608;7.216;2024-02-26T13:54:06;7.28;;;4.20;;
65835;SDS011;52595;51.608;7.216;2024-02-26T13:56:32;6.03;;;4.20;;
65835;SDS011;52595;51.608;7.216;2024-02-26T13:58:58;6.80;;;4.50;;
65835;SDS011;52595;51.608;7.216;2024-02-26T14:01:24;7.95;;;4.00;;
65835;SDS011;52595;51.608;7.216;2024-02-26T14:03:49;5.85;;;3.88;;
65835;SDS011;52595;51.608;7.216;2024-02-26T14:06:15;7.05;;;4.57;;
65835;SDS011;52595;51.608;7.216;2024-02-26T14:08:41;9.98;;;4.90;;
65835;SDS011;52595;51.608;7.216;2024-02-26T14:11:06;9.68;;;4.70;;
65835;SDS011;52595;51.608;7.216;2024-02-26T14:13:31;7.20;;;4.05;;
65835;SDS011;52595;51.608;7.216;2024-02-26T14:15:57;6.75;;;3.90;;
65835;SDS011;52595;51.608;7.216;2024-02-26T14:18:22;6.32;;;4.22;;
65835;SDS011;52595;51.608;7.216;2024-02-26T14:20:48;6.47;;;4.20;;
65835;SDS011;52595;51.608;7.216;2024-02-26T14:23:13;6.75;;;3.67;;
65835;SDS011;52595;51.608;7.216;2024-02-26T14:25:39;7.75;;;4.20;;
65835;SDS011;52595;51.608;7.216;2024-02-26T14:28:04;8.13;;;4.10;;
65835;SDS011;52595;51.608;7.216;2024-02-26T14:30:30;6.80;;;3.72;;
65835;SDS011;52595;51.608;7.216;2024-02-26T14:32:55;5.93;;;3.95;;
65835;SDS011;52595;51.608;7.216;2024-02-26T14:35:21;6.15;;;3.85;;
65835;SDS011;52595;51.608;7.216;2024-02-26T14:37:46;7.25;;;4.38;;
65835;SDS011;52595;51.608;7.216;2024-02-26T14:40:13;6.43;;;4.10;;
65835;SDS011;52595;51.608;7.216;2024-02-26T14:42:39;7.80;;;4.22;;
65835;SDS011;52595;51.608;7.216;2024-02-26T14:45:05;6.47;;;4.45;;
65835;SDS011;52595;51.608;7.216;2024-02-26T14:47:34;8.35;;;3.72;;
65835;SDS011;52595;51.608;7.216;2024-02-26T14:49:59;6.28;;;3.88;;